Bessemer, AL (35023)

5:11 PM CDT on August 18, 2017 (GMT -0500)
Highland Forest | | Change Station

Elev 846 ft 33.49 °N, 87.00 °W | Updated 19 seconds ago

Partly Cloudy
Partly Cloudy
90.1 °F
Feels Like 101 °F
N
0.0
Wind Variable Wind from SW
Gusts 0.0 mph

Today
High -- | Low -- °F
--% Chance of Precip.
Yesterday
High -- | Low -- °F
Precip. -- in
Pressure 29.97 in
Visibility 10.0 miles
Clouds Few 5000 ft
Heat Index 101 °F
Dew Point 75 °F
Humidity 62%
Rainfall 0.00 in
Snow Depth Not available.
6:12 AM 7:30 PM
Waning Crescent, 11% visible
METAR KBHM 182153Z 29009KT 10SM FEW050 32/19 A3000 RMK AO2 SLP148 T03220189
Pressure 29.97 in
Visibility 10.0 miles
Clouds Few 5000 ft
Heat Index 101 °F
Dew Point 75 °F
Humidity 62%
Rainfall 0.00 in
Snow Depth Not available.
6:12 AM 7:30 PM
Waning Crescent, 11% visible
METAR KBHM 182153Z 29009KT 10SM FEW050 32/19 A3000 RMK AO2 SLP148 T03220189

Get Severe Weather Alerts

Thanks for signing up!

Be on the lookout for a verification email in your inbox.

You'll start receiving the daily forecast at 6 AM.

×

10-Day Weather Forecast

Almanac

Astronomy

Aug. 18, 2017 Rise Set
Actual Time
Civil Twilight
Nautical Twilight
Astronomical Twilight
Moon
Length of Visible Light
Length of Day
Tomorrow will be .
, % of the Moon is Illuminated

Today's Extremes

State Highs State Lows

Community

WunderPhotos

Category 6

Welcome to Category 6. This is the collective home for Weather Underground's featured writeups by Dr. Jeff Masters (right), Bob Henson (left), Chris Burt, and other regular contributors.

Nearby

Air Quality

  Air Quality AQ Index Pollutant
Not available.

Snow Depth

Station Depth Elevation

Earthquake Activity

City Distance Mag. Time & Date
Minimum magnitude displayed is 2.5.

Coastal Water Temperatures

Place Temperature

Stations

Nearby Weather Stations

Station Location Temp. Windchill Dew Point Humidity Wind Precip. Elev Updated Type
                   

Watches & Warnings

There are currently no watches in effect.